createdAt,value
2024-03-16T00:00:18.206Z,99691.36
2024-03-16T00:02:45.347Z,99690.52
2024-03-16T00:05:12.462Z,99689.70
2024-03-16T00:07:39.442Z,99687.48
2024-03-16T00:10:07.320Z,99690.58
2024-03-16T00:12:35.480Z,99692.95
2024-03-16T00:15:02.349Z,99692.50
2024-03-16T00:17:29.334Z,99692.52
2024-03-16T00:19:56.138Z,99694.11
2024-03-16T00:22:22.932Z,99690.83
2024-03-16T00:24:51.252Z,99692.97
2024-03-16T00:27:18.711Z,99692.34
2024-03-16T00:29:45.464Z,99693.45
2024-03-16T00:32:12.303Z,99695.39
2024-03-16T00:34:39.028Z,99689.27
2024-03-16T00:37:06.162Z,99688.70
2024-03-16T00:39:33.254Z,99687.55
2024-03-16T00:42:00.095Z,99684.67
2024-03-16T00:44:27.880Z,99684.09
2024-03-16T00:46:54.638Z,99682.38
2024-03-16T00:49:21.506Z,99679.30
2024-03-16T00:51:48.325Z,99677.50
2024-03-16T00:54:15.172Z,99676.86
2024-03-16T00:56:43.876Z,99674.60
2024-03-16T00:59:10.572Z,99672.22
2024-03-16T01:01:37.525Z,99677.13
2024-03-16T01:04:05.221Z,99672.23
2024-03-16T01:06:32.344Z,99671.10
2024-03-16T01:08:59.880Z,99675.63
2024-03-16T01:11:26.778Z,99672.41
2024-03-16T01:13:54.065Z,99675.16
2024-03-16T01:16:20.882Z,99677.73
2024-03-16T01:18:47.587Z,99681.63
2024-03-16T01:21:15.498Z,99679.92
2024-03-16T01:23:42.249Z,99679.98
2024-03-16T01:26:10.169Z,99680.07
2024-03-16T01:28:36.877Z,99680.02
2024-03-16T01:31:04.372Z,99680.96
2024-03-16T01:33:31.298Z,99680.02
2024-03-16T01:35:58.405Z,99680.98
2024-03-16T01:38:25.253Z,99682.98
2024-03-16T01:40:52.028Z,99685.33
2024-03-16T01:43:19.044Z,99682.76
2024-03-16T01:45:46.171Z,99683.54
2024-03-16T01:48:13.245Z,99681.50
2024-03-16T01:50:41.452Z,99683.30
2024-03-16T01:53:10.141Z,99681.26
2024-03-16T01:55:36.970Z,99679.18
2024-03-16T01:58:05.041Z,99685.45
2024-03-16T02:00:32.483Z,99686.60
2024-03-16T02:03:00.414Z,99682.54
2024-03-16T02:05:27.326Z,99683.26
2024-03-16T02:07:54.581Z,99682.86
2024-03-16T02:10:22.191Z,99687.33
2024-03-16T02:12:49.582Z,99682.41
2024-03-16T02:15:16.707Z,99682.92
2024-03-16T02:17:46.491Z,99681.52
2024-03-16T02:20:16.500Z,99684.57
2024-03-16T02:22:43.543Z,99683.85
2024-03-16T02:25:11.479Z,99686.46
2024-03-16T02:27:38.645Z,99687.13
2024-03-16T02:30:10.583Z,99689.04
2024-03-16T02:32:37.992Z,99695.65
2024-03-16T02:35:08.505Z,99692.52
2024-03-16T02:37:36.086Z,99697.75
2024-03-16T02:40:06.536Z,99703.88
2024-03-16T02:42:33.494Z,99702.11
2024-03-16T02:45:00.528Z,99700.80
2024-03-16T02:47:27.507Z,99700.55
2024-03-16T02:49:54.575Z,99701.95
2024-03-16T02:52:21.260Z,99698.09
2024-03-16T02:54:48.449Z,99695.14
2024-03-16T02:57:15.450Z,99693.28
2024-03-16T02:59:42.273Z,99693.47
2024-03-16T03:02:09.339Z,99693.02
2024-03-16T03:04:36.073Z,99686.88
2024-03-16T03:07:04.749Z,99695.79
2024-03-16T03:09:33.592Z,99693.48
2024-03-16T03:12:00.510Z,99693.40
2024-03-16T03:14:27.402Z,99691.45
2024-03-16T03:16:54.342Z,99691.86
2024-03-16T03:19:21.163Z,99697.02
2024-03-16T03:21:47.876Z,99698.32
2024-03-16T03:24:14.738Z,99699.55
2024-03-16T03:26:41.527Z,99698.35
2024-03-16T03:29:08.471Z,99700.91
2024-03-16T03:31:35.146Z,99701.98
2024-03-16T03:34:01.835Z,99703.87
2024-03-16T03:36:29.780Z,99702.55
2024-03-16T03:38:56.644Z,99704.88
2024-03-16T03:41:23.462Z,99706.73
2024-03-16T03:44:00.202Z,99715.89
2024-03-16T03:46:40.234Z,99715.17
2024-03-16T03:49:15.235Z,99717.27
2024-03-16T03:51:42.051Z,99717.15
2024-03-16T03:54:09.170Z,99713.28
2024-03-16T03:56:35.946Z,99716.30
2024-03-16T03:59:02.871Z,99717.61
2024-03-16T04:01:29.820Z,99721.23
2024-03-16T04:03:56.745Z,99720.25
2024-03-16T04:06:26.509Z,99719.77
2024-03-16T04:08:53.362Z,99719.62
2024-03-16T04:11:20.146Z,99718.84
2024-03-16T04:13:47.140Z,99721.10
2024-03-16T04:16:15.002Z,99719.23
2024-03-16T04:18:42.151Z,99721.09
2024-03-16T04:21:08.854Z,99723.02
2024-03-16T04:23:35.601Z,99722.48
2024-03-16T04:26:02.349Z,99722.87
2024-03-16T04:28:29.231Z,99720.39
2024-03-16T04:30:56.312Z,99719.59
2024-03-16T04:33:23.244Z,99717.33
2024-03-16T04:35:49.882Z,99719.41
2024-03-16T04:38:18.064Z,99721.84
2024-03-16T04:40:44.818Z,99721.61
2024-03-16T04:43:11.858Z,99722.00
2024-03-16T04:45:38.843Z,99722.41
2024-03-16T04:48:05.814Z,99720.06
2024-03-16T04:50:34.068Z,99724.00
2024-03-16T04:53:00.856Z,99721.42
2024-03-16T04:55:27.750Z,99720.09
2024-03-16T04:57:54.579Z,99720.02
2024-03-16T05:00:21.898Z,99721.17
2024-03-16T05:02:48.857Z,99722.05
2024-03-16T05:05:15.787Z,99721.34
2024-03-16T05:07:42.543Z,99723.23
2024-03-16T05:10:09.596Z,99721.85
2024-03-16T05:12:36.760Z,99719.52
2024-03-16T05:15:04.244Z,99721.88
2024-03-16T05:17:32.146Z,99720.27
2024-03-16T05:19:58.919Z,99719.29
2024-03-16T05:22:26.123Z,99719.54
2024-03-16T05:24:53.072Z,99721.92
2024-03-16T05:27:19.877Z,99724.77
2024-03-16T05:29:46.573Z,99723.00
2024-03-16T05:32:13.515Z,99725.79
2024-03-16T05:34:40.493Z,99728.52
2024-03-16T05:37:07.361Z,99731.54
2024-03-16T05:39:34.462Z,99730.44
2024-03-16T05:42:01.288Z,99732.52
2024-03-16T05:44:28.000Z,99729.10
2024-03-16T05:46:54.780Z,99730.66
2024-03-16T05:49:22.732Z,99730.67
2024-03-16T05:51:50.558Z,99726.36
2024-03-16T05:54:17.406Z,99729.06
2024-03-16T05:56:44.097Z,99729.42
2024-03-16T05:59:11.450Z,99730.88
2024-03-16T06:01:38.301Z,99733.94
2024-03-16T06:04:05.268Z,99737.64
2024-03-16T06:06:32.643Z,99737.49
2024-03-16T06:08:59.517Z,99740.40
2024-03-16T06:11:27.254Z,99741.33
2024-03-16T06:13:53.988Z,99743.48
2024-03-16T06:16:22.265Z,99740.19
2024-03-16T06:18:49.350Z,99740.79
2024-03-16T06:21:16.189Z,99740.16
2024-03-16T06:23:43.191Z,99742.81
2024-03-16T06:26:17.292Z,99741.30
2024-03-16T06:28:47.696Z,99743.74
2024-03-16T06:31:14.554Z,99746.92
2024-03-16T06:33:45.999Z,99747.13
2024-03-16T06:36:12.733Z,99745.70
2024-03-16T06:38:39.734Z,99742.75
2024-03-16T06:41:06.564Z,99747.52
2024-03-16T06:43:34.361Z,99748.62
2024-03-16T06:46:06.633Z,99748.27
2024-03-16T06:48:33.518Z,99750.11
2024-03-16T06:51:00.497Z,99748.13
2024-03-16T06:53:27.127Z,99747.63
2024-03-16T06:55:55.929Z,99746.23
2024-03-16T06:58:23.333Z,99746.20
2024-03-16T07:00:52.163Z,99750.63
2024-03-16T07:03:19.814Z,99753.89
2024-03-16T07:05:46.430Z,99755.59
2024-03-16T07:08:16.415Z,99758.35
2024-03-16T07:10:46.653Z,99760.31
2024-03-16T07:13:13.677Z,99760.95
2024-03-16T07:15:40.814Z,99763.58
2024-03-16T07:18:08.181Z,99765.33
2024-03-16T07:20:35.464Z,99765.46
2024-03-16T07:23:03.355Z,99764.13
2024-03-16T07:25:30.906Z,99761.71
2024-03-16T07:27:57.667Z,99766.25
2024-03-16T07:30:25.909Z,99766.98
2024-03-16T07:32:52.683Z,99763.23
2024-03-16T07:35:19.448Z,99759.12
2024-03-16T07:37:46.046Z,99757.41
2024-03-16T07:40:16.003Z,99755.30
2024-03-16T07:42:43.080Z,99758.37
2024-03-16T07:45:10.268Z,99758.75
2024-03-16T07:47:37.613Z,99758.41
2024-03-16T07:50:06.380Z,99753.48
2024-03-16T07:52:34.312Z,99749.39
2024-03-16T07:55:01.140Z,99750.81
2024-03-16T07:57:29.124Z,99747.81
2024-03-16T07:59:56.030Z,99752.39
2024-03-16T08:02:23.028Z,99755.33
2024-03-16T08:04:49.953Z,99753.02
2024-03-16T08:07:16.862Z,99755.68
2024-03-16T08:09:44.186Z,99754.10
2024-03-16T08:12:10.927Z,99755.91
2024-03-16T08:14:38.097Z,99752.09
2024-03-16T08:17:05.167Z,99753.36
2024-03-16T08:19:32.393Z,99750.38
2024-03-16T08:21:59.318Z,99746.84
2024-03-16T08:24:27.137Z,99753.73
2024-03-16T08:26:54.044Z,99749.14
2024-03-16T08:29:20.898Z,99748.41
2024-03-16T08:31:47.792Z,99748.72
2024-03-16T08:34:14.709Z,99746.25
2024-03-16T08:36:41.541Z,99744.75
2024-03-16T08:39:08.817Z,99747.29
2024-03-16T08:41:36.919Z,99741.72
2024-03-16T08:44:05.117Z,99741.92
2024-03-16T08:46:32.196Z,99744.77
2024-03-16T08:48:59.172Z,99743.00
2024-03-16T08:51:26.307Z,99740.42
2024-03-16T08:53:53.946Z,99738.25
2024-03-16T08:56:20.762Z,99742.35
2024-03-16T08:58:48.981Z,99743.34
2024-03-16T09:01:17.391Z,99738.09
2024-03-16T09:03:44.404Z,99736.27
2024-03-16T09:06:12.564Z,99738.36
2024-03-16T09:08:39.490Z,99742.88
2024-03-16T09:11:06.266Z,99734.90
2024-03-16T09:13:34.390Z,99733.02
2024-03-16T09:16:05.885Z,99738.35
2024-03-16T09:18:35.819Z,99737.45
2024-03-16T09:21:03.692Z,99734.83
2024-03-16T09:23:30.803Z,99739.11
2024-03-16T09:25:58.024Z,99735.00
2024-03-16T09:28:24.924Z,99735.84
2024-03-16T09:30:56.366Z,99737.28
2024-03-16T09:33:24.041Z,99736.30
2024-03-16T09:35:54.190Z,99744.32
2024-03-16T09:38:20.921Z,99734.03
2024-03-16T09:40:56.250Z,99735.84
2024-03-16T09:43:23.094Z,99735.91
2024-03-16T09:45:50.011Z,99733.52
2024-03-16T09:48:17.600Z,99734.67
2024-03-16T09:50:48.287Z,99737.00
2024-03-16T09:53:23.713Z,99736.79
2024-03-16T09:55:51.486Z,99739.39
2024-03-16T09:58:19.003Z,99731.85
2024-03-16T10:00:46.498Z,99730.48
2024-03-16T10:03:16.249Z,99730.27
2024-03-16T10:05:43.653Z,99728.83
2024-03-16T10:08:10.570Z,99728.52
2024-03-16T10:10:37.362Z,99727.10
2024-03-16T10:13:09.326Z,99724.38
2024-03-16T10:15:45.779Z,99723.66
2024-03-16T10:18:15.977Z,99723.54
2024-03-16T10:20:46.117Z,99727.30
2024-03-16T10:23:16.817Z,99723.56
2024-03-16T10:25:47.066Z,99721.82
2024-03-16T10:28:17.048Z,99723.52
2024-03-16T10:30:45.497Z,99723.44
2024-03-16T10:33:13.077Z,99722.46
2024-03-16T10:35:39.854Z,99724.13
2024-03-16T10:38:35.347Z,99719.54
2024-03-16T10:41:06.588Z,99718.96
2024-03-16T10:43:53.548Z,99721.20
2024-03-16T10:46:21.322Z,99716.58
2024-03-16T10:48:48.255Z,99718.35
2024-03-16T10:51:16.529Z,99715.55
2024-03-16T10:53:43.450Z,99714.45
2024-03-16T10:56:10.773Z,99715.80
2024-03-16T10:58:37.993Z,99714.04
2024-03-16T11:01:08.925Z,99711.85
2024-03-16T11:03:39.924Z,99712.85
2024-03-16T11:06:10.735Z,99706.67
2024-03-16T11:08:51.154Z,99708.73
2024-03-16T11:11:28.067Z,99708.23
2024-03-16T11:13:59.673Z,99702.31
2024-03-16T11:16:30.169Z,99701.98
2024-03-16T11:19:00.922Z,99702.89
2024-03-16T11:21:29.242Z,99701.95
2024-03-16T11:23:59.652Z,99697.84
2024-03-16T11:26:26.438Z,99696.52
2024-03-16T11:29:19.269Z,99694.24
2024-03-16T11:31:54.034Z,99687.20
2024-03-16T11:34:22.002Z,99686.84
2024-03-16T11:36:53.391Z,99687.77
2024-03-16T11:39:31.306Z,99684.98
2024-03-16T11:41:59.323Z,99682.98
2024-03-16T11:44:26.872Z,99684.63
2024-03-16T11:46:54.418Z,99679.95
2024-03-16T11:49:22.088Z,99680.21
2024-03-16T11:51:49.945Z,99679.30
2024-03-16T11:54:16.995Z,99681.13
2024-03-16T11:56:44.256Z,99680.77
2024-03-16T11:59:14.334Z,99679.48
2024-03-16T12:01:43.096Z,99677.03
2024-03-16T12:04:10.728Z,99678.66
2024-03-16T12:06:37.801Z,99677.58
2024-03-16T12:09:13.767Z,99681.23
2024-03-16T12:11:45.863Z,99683.22
2024-03-16T12:14:14.918Z,99683.23
2024-03-16T12:16:43.862Z,99680.73
2024-03-16T12:19:12.034Z,99688.70
2024-03-16T12:21:43.486Z,99681.45
2024-03-16T12:24:15.330Z,99681.10
2024-03-16T12:26:49.643Z,99676.33
2024-03-16T12:29:17.858Z,99674.29
2024-03-16T12:31:56.966Z,99674.88
2024-03-16T12:34:29.005Z,99676.95
2024-03-16T12:36:56.315Z,99675.73
2024-03-16T12:39:25.684Z,99674.21
2024-03-16T12:41:54.213Z,99675.48
2024-03-16T12:44:23.019Z,99677.08
2024-03-16T12:46:51.098Z,99676.41
2024-03-16T12:49:17.885Z,99671.70
2024-03-16T12:51:45.678Z,99671.42
2024-03-16T12:54:12.720Z,99667.29
2024-03-16T12:56:47.939Z,99667.79
2024-03-16T12:59:15.037Z,99669.55
2024-03-16T13:01:42.311Z,99665.23
2024-03-16T13:04:09.185Z,99665.64
2024-03-16T13:06:36.131Z,99666.86
2024-03-16T13:09:11.235Z,99664.89
2024-03-16T13:11:38.301Z,99667.17
2024-03-16T13:14:05.090Z,99669.52
2024-03-16T13:16:33.535Z,99661.60
2024-03-16T13:19:02.182Z,99659.27
2024-03-16T13:21:30.107Z,99659.43
2024-03-16T13:23:56.862Z,99662.98
2024-03-16T13:26:25.022Z,99665.08
2024-03-16T13:28:51.835Z,99662.45
2024-03-16T13:31:18.879Z,99660.71
2024-03-16T13:33:45.641Z,99658.94
2024-03-16T13:36:12.748Z,99653.15
2024-03-16T13:38:41.286Z,99655.60
2024-03-16T13:41:08.636Z,99654.39
2024-03-16T13:43:37.058Z,99648.35
2024-03-16T13:46:04.411Z,99643.44
2024-03-16T13:48:31.774Z,99640.60
2024-03-16T13:51:04.665Z,99641.30
2024-03-16T13:53:36.804Z,99639.28
2024-03-16T13:56:04.114Z,99640.01
2024-03-16T13:58:31.051Z,99640.95
2024-03-16T14:00:58.056Z,99641.09
2024-03-16T14:03:26.019Z,99647.38
2024-03-16T14:05:53.073Z,99643.83
2024-03-16T14:08:20.755Z,99645.92
2024-03-16T14:10:47.510Z,99642.01
2024-03-16T14:13:15.222Z,99644.39
2024-03-16T14:15:43.247Z,99644.79
2024-03-16T14:18:09.976Z,99642.53
2024-03-16T14:20:36.916Z,99645.00
2024-03-16T14:23:04.450Z,99646.25
2024-03-16T14:25:31.957Z,99648.10
2024-03-16T14:27:58.694Z,99644.38
2024-03-16T14:30:25.611Z,99643.36
2024-03-16T14:32:52.530Z,99646.34
2024-03-16T14:35:20.222Z,99640.34
2024-03-16T14:37:47.478Z,99643.72
2024-03-16T14:40:22.223Z,99640.90
2024-03-16T14:42:49.704Z,99640.95
2024-03-16T14:45:16.809Z,99640.95
2024-03-16T14:47:43.791Z,99641.70
2024-03-16T14:50:13.949Z,99642.48
2024-03-16T14:52:43.717Z,99643.77
2024-03-16T14:55:10.749Z,99640.30
2024-03-16T14:57:39.239Z,99638.88
2024-03-16T15:00:07.392Z,99639.69
2024-03-16T15:02:37.572Z,99643.05
2024-03-16T15:05:06.578Z,99642.55
2024-03-16T15:07:34.251Z,99642.25
2024-03-16T15:10:01.838Z,99640.27
2024-03-16T15:12:28.858Z,99639.41
2024-03-16T15:14:55.750Z,99641.89
2024-03-16T15:17:22.560Z,99644.73
2024-03-16T15:19:50.572Z,99645.05
2024-03-16T15:22:17.470Z,99642.75
2024-03-16T15:24:44.755Z,99642.91
2024-03-16T15:27:37.955Z,99640.79
2024-03-16T15:30:05.819Z,99640.91
2024-03-16T15:32:33.065Z,99644.77
2024-03-16T15:35:00.218Z,99645.14
2024-03-16T15:37:27.368Z,99646.63
2024-03-16T15:39:54.326Z,99641.38
2024-03-16T15:42:21.482Z,99644.73
2024-03-16T15:44:48.650Z,99645.05
2024-03-16T15:47:15.462Z,99643.46
2024-03-16T15:49:43.012Z,99644.31
2024-03-16T15:52:16.876Z,99645.11
2024-03-16T15:54:47.764Z,99648.33
2024-03-16T15:57:17.160Z,99645.67
2024-03-16T15:59:43.951Z,99647.13
2024-03-16T16:02:11.064Z,99645.11
2024-03-16T16:04:38.204Z,99647.91
2024-03-16T16:07:05.033Z,99647.75
2024-03-16T16:09:31.814Z,99652.37
2024-03-16T16:11:58.638Z,99647.31
2024-03-16T16:14:25.581Z,99650.42
2024-03-16T16:16:52.418Z,99648.89
2024-03-16T16:19:19.381Z,99648.50
2024-03-16T16:21:46.124Z,99649.29
2024-03-16T16:24:13.334Z,99650.40
2024-03-16T16:26:42.160Z,99654.74
2024-03-16T16:29:12.166Z,99652.20
2024-03-16T16:31:39.307Z,99651.78
2024-03-16T16:35:02.706Z,99652.31
2024-03-16T16:37:30.109Z,99654.95
2024-03-16T16:39:57.196Z,99655.88
2024-03-16T16:42:29.740Z,99658.02
2024-03-16T16:44:56.636Z,99655.50
2024-03-16T16:47:23.520Z,99655.81
2024-03-16T16:49:52.589Z,99658.23
2024-03-16T16:52:21.273Z,99657.14
2024-03-16T16:54:48.203Z,99658.91
2024-03-16T16:57:15.113Z,99661.15
2024-03-16T16:59:41.973Z,99662.24
2024-03-16T17:02:08.890Z,99665.27
2024-03-16T17:04:35.609Z,99665.69
2024-03-16T17:07:03.270Z,99665.00
2024-03-16T17:09:30.153Z,99664.14
2024-03-16T17:11:56.952Z,99660.52
2024-03-16T17:14:25.414Z,99658.20
2024-03-16T17:16:52.796Z,99658.62
2024-03-16T17:19:21.151Z,99659.65
2024-03-16T17:21:49.268Z,99659.75
2024-03-16T17:24:16.089Z,99657.05
2024-03-16T17:26:42.942Z,99660.27
2024-03-16T17:29:10.251Z,99658.38
2024-03-16T17:31:37.040Z,99658.52
2024-03-16T17:34:04.888Z,99660.00
2024-03-16T17:36:31.865Z,99664.99
2024-03-16T17:38:58.713Z,99667.38
2024-03-16T17:41:26.269Z,99663.38
2024-03-16T17:44:44.003Z,99659.42
2024-03-16T17:47:12.137Z,99660.36
2024-03-16T17:49:42.360Z,99660.27
2024-03-16T17:52:09.081Z,99662.98
2024-03-16T17:54:36.069Z,99664.84
2024-03-16T17:57:06.381Z,99668.02
2024-03-16T17:59:33.162Z,99667.77
2024-03-16T18:01:59.948Z,99666.30
2024-03-16T18:04:28.435Z,99665.61
2024-03-16T18:06:55.513Z,99665.23
2024-03-16T18:09:22.335Z,99663.65
2024-03-16T18:11:49.166Z,99659.32
2024-03-16T18:14:16.031Z,99657.85
2024-03-16T18:16:45.238Z,99658.20
2024-03-16T18:19:12.411Z,99658.16
2024-03-16T18:21:39.317Z,99659.40
2024-03-16T18:24:07.154Z,99662.56
2024-03-16T18:26:34.022Z,99661.23
2024-03-16T18:29:00.894Z,99660.42
2024-03-16T18:31:27.833Z,99655.88
2024-03-16T18:33:54.989Z,99657.08
2024-03-16T18:36:23.135Z,99653.16
2024-03-16T18:38:49.989Z,99643.91
2024-03-16T18:41:18.594Z,99640.54
2024-03-16T18:43:47.983Z,99643.14
2024-03-16T18:46:16.201Z,99641.08
2024-03-16T18:48:44.692Z,99645.17
2024-03-16T18:51:11.482Z,99644.73
2024-03-16T18:53:38.300Z,99643.39
2024-03-16T18:56:06.305Z,99644.50
2024-03-16T18:58:33.202Z,99637.73
2024-03-16T19:01:04.628Z,99637.50
2024-03-16T19:03:32.029Z,99641.61
2024-03-16T19:06:00.475Z,99639.23
2024-03-16T19:08:29.288Z,99637.67
2024-03-16T19:10:59.194Z,99639.55
2024-03-16T19:13:26.936Z,99640.63
2024-03-16T19:15:55.721Z,99640.88
2024-03-16T19:18:23.319Z,99641.12
2024-03-16T19:20:50.674Z,99641.70
2024-03-16T19:23:17.682Z,99637.77
2024-03-16T19:25:46.368Z,99637.48
2024-03-16T19:28:57.071Z,99639.36
2024-03-16T19:31:23.947Z,99637.29
2024-03-16T19:33:50.968Z,99631.08
2024-03-16T19:36:21.464Z,99634.77
2024-03-16T19:38:50.423Z,99630.80
2024-03-16T19:41:17.652Z,99630.17
2024-03-16T19:43:44.969Z,99629.04
2024-03-16T19:46:11.915Z,99627.00
2024-03-16T19:48:38.677Z,99629.24
2024-03-16T19:51:06.533Z,99627.18
2024-03-16T19:53:33.276Z,99625.88
2024-03-16T19:56:00.189Z,99619.52
2024-03-16T19:58:28.720Z,99621.67
2024-03-16T20:00:58.008Z,99622.58
2024-03-16T20:03:27.999Z,99620.83
2024-03-16T20:05:54.842Z,99613.86
2024-03-16T20:08:21.891Z,99612.02
2024-03-16T20:10:49.795Z,99610.99
2024-03-16T20:13:17.137Z,99612.95
2024-03-16T20:15:44.054Z,99610.94
2024-03-16T20:18:10.813Z,99608.80
2024-03-16T20:20:40.306Z,99611.90
2024-03-16T20:23:08.346Z,99601.84
2024-03-16T20:25:37.989Z,99605.11
2024-03-16T20:28:08.408Z,99605.88
2024-03-16T20:30:35.582Z,99603.11
2024-03-16T20:33:02.487Z,99608.56
2024-03-16T20:35:29.334Z,99608.48
2024-03-16T20:37:56.181Z,99608.55
2024-03-16T20:40:23.764Z,99607.09
2024-03-16T20:42:52.776Z,99606.65
2024-03-16T20:45:19.868Z,99604.98
2024-03-16T20:47:47.026Z,99601.73
2024-03-16T20:50:13.955Z,99603.77
2024-03-16T20:52:42.631Z,99600.00
2024-03-16T20:55:09.654Z,99601.20
2024-03-16T20:57:36.734Z,99597.15
2024-03-16T21:00:09.690Z,99596.10
2024-03-16T21:02:37.185Z,99596.77
2024-03-16T21:05:04.716Z,99593.92
2024-03-16T21:07:34.330Z,99595.90
2024-03-16T21:10:05.202Z,99600.85
2024-03-16T21:12:35.194Z,99597.15
2024-03-16T21:15:10.143Z,99595.05
2024-03-16T21:17:37.131Z,99598.23
2024-03-16T21:20:05.544Z,99594.92
2024-03-16T21:22:36.893Z,99595.33
2024-03-16T21:25:04.659Z,99597.11
2024-03-16T21:27:31.603Z,99595.65
2024-03-16T21:29:58.435Z,99592.79
2024-03-16T21:32:25.319Z,99593.11
2024-03-16T21:34:54.263Z,99591.75
2024-03-16T21:37:23.779Z,99592.01
2024-03-16T21:39:50.657Z,99592.46
2024-03-16T21:42:19.927Z,99590.55
2024-03-16T21:44:47.126Z,99587.27
2024-03-16T21:47:14.644Z,99586.88
2024-03-16T21:49:41.505Z,99586.25
2024-03-16T21:52:09.171Z,99586.84
2024-03-16T21:54:38.395Z,99584.61
2024-03-16T21:57:05.159Z,99585.33
2024-03-16T21:59:32.020Z,99583.95
2024-03-16T22:01:58.900Z,99582.48
2024-03-16T22:04:28.278Z,99583.30
2024-03-16T22:06:59.090Z,99583.08
2024-03-16T22:09:25.890Z,99581.20
2024-03-16T22:11:53.734Z,99575.79
2024-03-16T22:14:20.525Z,99577.66
2024-03-16T22:16:47.231Z,99578.66
2024-03-16T22:19:14.659Z,99578.41
2024-03-16T22:21:41.499Z,99581.52
2024-03-16T22:24:08.766Z,99579.81
2024-03-16T22:26:35.696Z,99571.98
2024-03-16T22:29:02.542Z,99577.16
2024-03-16T22:31:30.753Z,99576.95
2024-03-16T22:33:57.604Z,99572.54
2024-03-16T22:36:24.722Z,99570.66
2024-03-16T22:38:51.446Z,99566.84
2024-03-16T22:41:18.171Z,99569.80
2024-03-16T22:43:44.798Z,99568.61
2024-03-16T22:46:11.504Z,99567.56
2024-03-16T22:48:38.403Z,99570.34
2024-03-16T22:51:05.183Z,99569.77
2024-03-16T22:53:31.825Z,99567.40
2024-03-16T22:55:58.651Z,99565.63
2024-03-16T22:58:25.544Z,99563.34
2024-03-16T23:00:59.568Z,99563.68
2024-03-16T23:03:26.639Z,99564.61
2024-03-16T23:05:53.405Z,99562.67
2024-03-16T23:08:20.813Z,99559.20
2024-03-16T23:10:50.443Z,99554.34
2024-03-16T23:13:17.344Z,99556.43
2024-03-16T23:15:44.094Z,99553.10
2024-03-16T23:18:10.851Z,99549.79
2024-03-16T23:20:37.928Z,99551.38
2024-03-16T23:23:05.915Z,99547.65
2024-03-16T23:25:32.650Z,99548.75
2024-03-16T23:27:59.525Z,99543.67
2024-03-16T23:30:26.937Z,99543.74
2024-03-16T23:32:53.559Z,99545.34
2024-03-16T23:35:21.673Z,99544.64
2024-03-16T23:37:49.541Z,99544.29
2024-03-16T23:40:16.218Z,99540.23
2024-03-16T23:42:48.074Z,99540.14
2024-03-16T23:45:15.412Z,99535.27
2024-03-16T23:47:42.781Z,99534.08
2024-03-16T23:50:14.038Z,99533.28
2024-03-16T23:52:40.779Z,99530.67
2024-03-16T23:55:08.124Z,99531.69
2024-03-16T23:57:34.985Z,99534.33
